createdAt,value
2024-01-18T00:03:29.495Z,1506
2024-01-18T00:08:48.758Z,1507
2024-01-18T00:14:07.134Z,1518
2024-01-18T00:19:25.632Z,1512
2024-01-18T00:24:44.180Z,1509
2024-01-18T00:30:02.292Z,1514
2024-01-18T00:35:20.973Z,1512
2024-01-18T00:40:39.673Z,1515
2024-01-18T00:45:57.825Z,1511
2024-01-18T00:51:15.997Z,1508
2024-01-18T00:56:34.404Z,1508
2024-01-18T01:01:52.808Z,1514
2024-01-18T01:07:11.010Z,1567
2024-01-18T01:12:29.664Z,1588
2024-01-18T01:17:48.242Z,1602
2024-01-18T01:23:06.490Z,1609
2024-01-18T01:28:24.887Z,1607
2024-01-18T01:33:43.119Z,1609
2024-01-18T01:39:01.547Z,1612
2024-01-18T01:44:20.086Z,1619
2024-01-18T01:49:38.574Z,1629
2024-01-18T01:54:56.905Z,1621
2024-01-18T02:00:15.079Z,1631
2024-01-18T02:05:34.031Z,1629
2024-01-18T02:10:52.269Z,1631
2024-01-18T02:16:10.450Z,1626
2024-01-18T02:21:28.643Z,1650
2024-01-18T02:26:46.952Z,1661
2024-01-18T02:32:05.517Z,1656
2024-01-18T02:37:23.840Z,1658
2024-01-18T02:42:42.484Z,1662
2024-01-18T02:48:00.771Z,1637
2024-01-18T02:53:18.985Z,1653
2024-01-18T02:58:37.141Z,1659
2024-01-18T03:03:55.629Z,1647
2024-01-18T03:09:14.253Z,1639
2024-01-18T03:14:34.663Z,1630
2024-01-18T03:19:56.392Z,1624
2024-01-18T03:25:14.679Z,1614
2024-01-18T03:30:33.070Z,1610
2024-01-18T03:35:51.436Z,1641
2024-01-18T03:41:09.435Z,1659
2024-01-18T03:46:27.639Z,1629
2024-01-18T03:51:45.794Z,1608
2024-01-18T03:57:04.240Z,1598
2024-01-18T04:02:22.663Z,1604
2024-01-18T04:07:41.220Z,1605
2024-01-18T04:12:59.437Z,1608
2024-01-18T04:18:18.128Z,1630
2024-01-18T04:23:39.895Z,1646
2024-01-18T04:28:58.119Z,1652
2024-01-18T04:34:16.429Z,1652
2024-01-18T04:39:34.997Z,1656
2024-01-18T04:44:53.538Z,1631
2024-01-18T04:50:14.026Z,1616
2024-01-18T04:55:32.184Z,1603
2024-01-18T05:00:50.430Z,1575
2024-01-18T05:06:09.197Z,1572
2024-01-18T05:11:27.750Z,1576
2024-01-18T05:16:45.916Z,1568
2024-01-18T05:22:04.251Z,1558
2024-01-18T05:27:22.456Z,1550
2024-01-18T05:32:41.006Z,1562
2024-01-18T05:37:59.029Z,1565
2024-01-18T05:43:17.003Z,1371
2024-01-18T05:48:35.186Z,1412
2024-01-18T05:53:53.694Z,1455
2024-01-18T05:59:12.030Z,1450
2024-01-18T06:04:30.537Z,1429
2024-01-18T06:09:48.914Z,1419
2024-01-18T06:15:07.404Z,1399
2024-01-18T06:20:28.538Z,1385
2024-01-18T06:25:46.916Z,1373
2024-01-18T06:31:05.416Z,1362
2024-01-18T06:36:23.904Z,1355
2024-01-18T06:41:42.307Z,1341
2024-01-18T06:47:00.475Z,1333
2024-01-18T06:52:18.891Z,1328
2024-01-18T06:57:37.059Z,1316
2024-01-18T07:02:55.617Z,1314
2024-01-18T07:08:13.954Z,1315
2024-01-18T07:13:32.621Z,1311
2024-01-18T07:18:51.207Z,1307
2024-01-18T07:24:09.608Z,1300
2024-01-18T07:29:27.738Z,1290
2024-01-18T07:34:46.115Z,1288
2024-01-18T07:40:05.195Z,1278
2024-01-18T07:45:23.735Z,1264
2024-01-18T07:50:42.066Z,1259
2024-01-18T07:56:00.764Z,1250
2024-01-18T08:01:18.865Z,1250
2024-01-18T08:06:37.549Z,1256
2024-01-18T08:11:56.419Z,1257
2024-01-18T08:17:14.748Z,1247
2024-01-18T08:22:32.728Z,1248
2024-01-18T08:27:51.078Z,1250
2024-01-18T08:33:09.298Z,1246
2024-01-18T08:38:27.797Z,1246
2024-01-18T08:43:46.028Z,1243
2024-01-18T08:49:04.638Z,1243
2024-01-18T08:54:23.175Z,1245
2024-01-18T08:59:41.979Z,1255
2024-01-18T09:05:00.588Z,1283
2024-01-18T09:10:19.034Z,1283
2024-01-18T09:15:37.524Z,1271
2024-01-18T09:20:56.024Z,1258
2024-01-18T09:26:16.930Z,1254
2024-01-18T09:31:38.386Z,1250
2024-01-18T09:37:01.801Z,1240
2024-01-18T09:42:21.058Z,1239
2024-01-18T09:47:39.851Z,1232
2024-01-18T09:53:04.014Z,1231
2024-01-18T09:58:22.230Z,1224
2024-01-18T10:03:40.813Z,1216
2024-01-18T10:09:00.352Z,1209
2024-01-18T10:14:18.504Z,1201
2024-01-18T10:19:36.882Z,1201
2024-01-18T10:24:55.221Z,1197
2024-01-18T10:30:13.598Z,1206
2024-01-18T10:35:34.461Z,1203
2024-01-18T10:40:52.837Z,1205
2024-01-18T10:46:11.016Z,1202
2024-01-18T10:51:29.568Z,1196
2024-01-18T10:56:48.071Z,1193
2024-01-18T11:02:06.443Z,1189
2024-01-18T11:07:24.575Z,1184
2024-01-18T11:12:46.072Z,1178
2024-01-18T11:18:04.868Z,1172
2024-01-18T11:23:23.323Z,1175
2024-01-18T11:28:41.457Z,1170
2024-01-18T11:34:00.050Z,1171
2024-01-18T11:39:18.719Z,1158
2024-01-18T11:44:37.044Z,1158
2024-01-18T11:49:55.427Z,1153
2024-01-18T11:55:14.094Z,1156
2024-01-18T12:00:32.512Z,1159
2024-01-18T12:05:51.141Z,1153
2024-01-18T12:11:09.403Z,1151
2024-01-18T12:16:27.691Z,1138
2024-01-18T12:21:46.369Z,1135
2024-01-18T12:27:04.642Z,1132
2024-01-18T12:32:23.052Z,1126
2024-01-18T12:37:41.560Z,1127
2024-01-18T12:43:00.119Z,1119
2024-01-18T12:48:18.276Z,1108
2024-01-18T12:53:37.510Z,1107
2024-01-18T12:58:56.606Z,1097
2024-01-18T13:04:15.001Z,1083
2024-01-18T13:09:34.484Z,1073
2024-01-18T13:14:53.997Z,1065
2024-01-18T13:20:12.266Z,1059
2024-01-18T13:25:30.741Z,1053
2024-01-18T13:30:48.902Z,1045
2024-01-18T13:36:07.704Z,1037
2024-01-18T13:41:26.452Z,1034
2024-01-18T13:46:44.700Z,1028
2024-01-18T13:52:03.085Z,1020
2024-01-18T13:57:22.341Z,1022
2024-01-18T14:02:40.749Z,1013
2024-01-18T14:07:59.656Z,1014
2024-01-18T14:13:18.218Z,1007
2024-01-18T14:18:36.914Z,1006
2024-01-18T14:23:56.969Z,1000
2024-01-18T14:29:15.547Z,1035
2024-01-18T14:34:35.520Z,1032
2024-01-18T14:39:53.996Z,1028
2024-01-18T14:45:12.250Z,1022
2024-01-18T14:50:31.070Z,1017
2024-01-18T14:55:49.291Z,1018
2024-01-18T15:01:07.527Z,1008
2024-01-18T15:06:10.224Z,1005
2024-01-18T15:11:28.568Z,1000
2024-01-18T15:16:46.711Z,994
2024-01-18T15:22:05.271Z,992
2024-01-18T15:27:23.672Z,987
2024-01-18T15:32:42.038Z,989
2024-01-18T15:38:00.228Z,984
2024-01-18T15:43:18.404Z,981
2024-01-18T15:48:37.034Z,979
2024-01-18T15:53:55.439Z,982
2024-01-18T15:59:13.935Z,985
2024-01-18T16:04:32.583Z,984
2024-01-18T16:09:51.346Z,984
2024-01-18T16:15:09.952Z,985
2024-01-18T16:20:28.451Z,987
2024-01-18T16:25:47.134Z,983
2024-01-18T16:31:05.290Z,992
2024-01-18T16:36:23.959Z,991
2024-01-18T16:41:42.629Z,996
2024-01-18T16:47:01.292Z,1003
2024-01-18T16:52:20.373Z,1010
2024-01-18T16:57:43.562Z,969
2024-01-18T17:03:02.176Z,975
2024-01-18T17:08:20.760Z,992
2024-01-18T17:13:39.842Z,998
2024-01-18T17:18:57.769Z,999
2024-01-18T17:24:15.928Z,1005
2024-01-18T17:29:33.932Z,1021
2024-01-18T17:34:52.296Z,1035
2024-01-18T17:40:10.854Z,1033
2024-01-18T17:45:29.024Z,1035
2024-01-18T17:50:47.240Z,1037
2024-01-18T17:56:05.953Z,1034
2024-01-18T18:01:24.489Z,1043
2024-01-18T18:06:42.788Z,1047
2024-01-18T18:12:01.032Z,1052
2024-01-18T18:17:19.198Z,1059
2024-01-18T18:22:38.365Z,1065
2024-01-18T18:27:56.724Z,1066
2024-01-18T18:33:14.969Z,1076
2024-01-18T18:38:34.203Z,1078
2024-01-18T18:43:53.256Z,1098
2024-01-18T18:49:11.783Z,1119
2024-01-18T18:54:30.470Z,1105
2024-01-18T18:59:52.207Z,1095
2024-01-18T19:05:11.517Z,1107
2024-01-18T19:10:29.846Z,1115
2024-01-18T19:15:48.404Z,1124
2024-01-18T19:20:51.235Z,1117
2024-01-18T19:26:09.579Z,1120
2024-01-18T19:31:27.872Z,1150
2024-01-18T19:36:45.991Z,1160
2024-01-18T19:42:04.326Z,1193
2024-01-18T19:47:22.851Z,1204
2024-01-18T19:52:41.653Z,1209
2024-01-18T19:57:59.987Z,1218
2024-01-18T20:03:17.973Z,1225
2024-01-18T20:08:36.158Z,1220
2024-01-18T20:13:54.402Z,1227
2024-01-18T20:19:12.417Z,1219
2024-01-18T20:24:30.985Z,1224
2024-01-18T20:29:49.891Z,1230
2024-01-18T20:35:09.326Z,1230
2024-01-18T20:40:27.917Z,1238
2024-01-18T20:45:46.055Z,1237
2024-01-18T20:51:05.136Z,1244
2024-01-18T20:56:23.362Z,1250
2024-01-18T21:01:41.748Z,1259
2024-01-18T21:06:59.917Z,1263
2024-01-18T21:12:18.633Z,1269
2024-01-18T21:17:39.016Z,1277
2024-01-18T21:23:03.355Z,1311
2024-01-18T21:28:21.789Z,1343
2024-01-18T21:33:40.113Z,1355
2024-01-18T21:38:58.478Z,1371
2024-01-18T21:44:17.140Z,1413
2024-01-18T21:49:36.276Z,1472
2024-01-18T21:54:56.032Z,1483
2024-01-18T22:00:14.641Z,1505
2024-01-18T22:05:34.228Z,1529
2024-01-18T22:10:53.043Z,1545
2024-01-18T22:16:10.984Z,1583
2024-01-18T22:21:29.598Z,1577
2024-01-18T22:26:48.440Z,1578
2024-01-18T22:32:07.145Z,1568
2024-01-18T22:37:25.444Z,1578
2024-01-18T22:42:43.404Z,1580
2024-01-18T22:48:01.629Z,1582
2024-01-18T22:53:20.411Z,1595
2024-01-18T22:58:38.633Z,1582
2024-01-18T23:03:57.372Z,1564
2024-01-18T23:09:15.541Z,1568
2024-01-18T23:14:18.322Z,1566
2024-01-18T23:19:36.778Z,1563
2024-01-18T23:24:54.749Z,1567
2024-01-18T23:30:12.936Z,1565
2024-01-18T23:35:31.089Z,1566
2024-01-18T23:40:49.083Z,1557
2024-01-18T23:46:07.458Z,1557
2024-01-18T23:51:25.991Z,1566
2024-01-18T23:56:44.365Z,1565
